Time;durP1;ratioP1;P1;durP2;ratioP2;P2;SDS_P1;SDS_P2;PMS_P1;PMS_P2;Temp;Humidity;BMP_temperature;BMP_pressure;BME280_temperature;BME280_humidity;BME280_pressure;Samples;Min_cycle;Max_cycle;Signal;HPM_P1;HPM_P2
2023/12/12 00:00:21;;;;;;;9.95;4.38;;;11.90;73.10;;;;;;5007417;28;20048;-58
2023/12/12 00:02:48;;;;;;;12.88;4.15;;;11.90;73.20;;;;;;5005584;28;20104;-58
2023/12/12 00:05:17;;;;;;;7.95;3.95;;;12.00;73.20;;;;;;5009193;28;20108;-58
2023/12/12 00:07:48;;;;;;;13.75;4.65;;;12.00;73.20;;;;;;5013114;28;20044;-58
2023/12/12 00:10:15;;;;;;;7.68;3.45;;;11.90;73.10;;;;;;5011664;28;20088;-58
2023/12/12 00:12:42;;;;;;;11.30;3.58;;;12.00;73.20;;;;;;5011831;28;20034;-58
2023/12/12 00:15:09;;;;;;;10.27;3.00;;;12.00;73.20;;;;;;5012973;28;20038;-58
2023/12/12 00:17:39;;;;;;;13.15;4.35;;;12.00;73.30;;;;;;5009983;28;20038;-58
2023/12/12 00:20:10;;;;;;;12.43;3.63;;;11.90;73.30;;;;;;5013678;28;20038;-58
2023/12/12 00:22:37;;;;;;;11.63;3.92;;;11.90;73.40;;;;;;5012455;28;20080;-58
2023/12/12 00:25:04;;;;;;;8.80;4.03;;;11.90;73.50;;;;;;5009150;28;20569;-58
2023/12/12 00:27:32;;;;;;;9.85;3.45;;;12.00;73.60;;;;;;5011682;28;20117;-57
2023/12/12 00:30:01;;;;;;;9.82;3.67;;;12.00;73.60;;;;;;5013784;28;20568;-57
2023/12/12 00:32:28;;;;;;;8.48;3.60;;;12.00;73.60;;;;;;5008285;28;20113;-58
2023/12/12 00:34:54;;;;;;;13.20;3.95;;;12.00;73.60;;;;;;5013191;28;20117;-58
2023/12/12 00:37:21;;;;;;;10.85;4.32;;;11.90;73.60;;;;;;5012222;28;20417;-58
2023/12/12 00:39:51;;;;;;;9.95;3.72;;;12.00;73.60;;;;;;5010577;28;20738;-58
2023/12/12 00:42:17;;;;;;;10.05;3.80;;;11.90;73.60;;;;;;5011308;28;20053;-57
2023/12/12 00:44:44;;;;;;;12.70;4.38;;;12.00;73.70;;;;;;5013004;28;20050;-58
2023/12/12 00:47:16;;;;;;;13.95;3.78;;;12.00;73.70;;;;;;5009201;28;20403;-57
2023/12/12 00:49:45;;;;;;;10.75;3.95;;;12.00;73.70;;;;;;5012004;28;20065;-57
2023/12/12 00:52:15;;;;;;;15.90;4.43;;;12.00;73.70;;;;;;5012126;28;20046;-58
2023/12/12 00:54:41;;;;;;;9.75;3.55;;;11.90;74.30;;;;;;5006991;28;20041;-58
2023/12/12 00:57:08;;;;;;;14.93;4.70;;;11.90;73.60;;;;;;5010856;28;20034;-59
2023/12/12 00:59:35;;;;;;;11.70;3.85;;;11.90;73.60;;;;;;5012186;28;20072;-58
2023/12/12 01:02:02;;;;;;;10.98;3.83;;;11.90;73.60;;;;;;5011047;28;20118;-58
2023/12/12 01:04:34;;;;;;;10.38;4.22;;;11.90;73.60;;;;;;5009831;28;20042;-57
2023/12/12 01:07:03;;;;;;;8.63;3.90;;;11.80;73.50;;;;;;5010117;28;20096;-58
2023/12/12 01:09:33;;;;;;;9.48;3.75;;;11.80;73.40;;;;;;5012692;28;20511;-55
2023/12/12 01:11:59;;;;;;;8.85;4.15;;;11.80;73.20;;;;;;5011704;28;20570;-57
2023/12/12 01:14:26;;;;;;;21.58;4.47;;;11.70;73.10;;;;;;5009394;28;20049;-59
2023/12/12 01:16:53;;;;;;;9.05;3.53;;;11.60;73.10;;;;;;5012078;28;20566;-57
2023/12/12 01:19:19;;;;;;;10.15;3.95;;;11.60;73.10;;;;;;5011831;28;20433;-58
2023/12/12 01:21:46;;;;;;;9.63;3.35;;;11.50;73.00;;;;;;5010373;28;20071;-58
2023/12/12 01:24:13;;;;;;;12.05;3.78;;;11.50;73.10;;;;;;5007275;28;20511;-59
2023/12/12 01:26:40;;;;;;;9.20;2.95;;;11.40;73.10;;;;;;5011612;28;20437;-59
2023/12/12 01:29:06;;;;;;;10.18;3.72;;;11.30;72.80;;;;;;5027952;28;20111;-57
2023/12/12 01:31:33;;;;;;;10.45;3.20;;;11.30;72.60;;;;;;5008762;28;20125;-59
2023/12/12 01:34:00;;;;;;;12.95;3.25;;;11.20;72.40;;;;;;5009289;28;20072;-57
2023/12/12 01:36:26;;;;;;;7.82;2.80;;;11.10;72.20;;;;;;5007821;28;20049;-59
2023/12/12 01:38:54;;;;;;;5.05;2.53;;;11.00;72.10;;;;;;5012110;28;20044;-58
2023/12/12 01:41:21;;;;;;;8.35;2.28;;;10.90;71.90;;;;;;5011460;28;20069;-58
2023/12/12 01:43:48;;;;;;;6.93;2.58;;;10.80;71.70;;;;;;5011433;28;20042;-58
2023/12/12 01:46:17;;;;;;;6.15;2.90;;;10.70;71.50;;;;;;5007000;28;20172;-56
2023/12/12 01:48:45;;;;;;;6.20;2.58;;;10.60;71.50;;;;;;5012302;28;20077;-57
2023/12/12 01:51:12;;;;;;;5.65;2.83;;;10.50;71.60;;;;;;5011078;28;20045;-58
2023/12/12 01:53:48;;;;;;;7.60;2.60;;;10.40;71.60;;;;;;5007203;28;20104;-57
2023/12/12 01:56:15;;;;;;;6.20;1.90;;;10.30;71.40;;;;;;5009987;28;20053;-58
2023/12/12 01:58:48;;;;;;;11.45;3.10;;;10.20;71.70;;;;;;5011603;28;20033;-57
2023/12/12 02:01:15;;;;;;;5.93;2.53;;;10.10;72.00;;;;;;5010939;28;20415;-58
2023/12/12 02:03:43;;;;;;;12.07;2.92;;;10.00;72.10;;;;;;5009353;28;20034;-57
2023/12/12 02:06:14;;;;;;;9.23;3.38;;;9.90;72.30;;;;;;5011150;28;20037;-57
2023/12/12 02:08:42;;;;;;;5.50;2.35;;;9.90;72.40;;;;;;5006808;28;20504;-59
2023/12/12 02:11:09;;;;;;;9.27;2.35;;;9.80;72.50;;;;;;5009195;28;20070;-57
2023/12/12 02:13:38;;;;;;;10.40;2.45;;;9.80;72.50;;;;;;5009365;28;20041;-58
2023/12/12 02:16:06;;;;;;;12.90;3.10;;;9.70;72.50;;;;;;5010886;28;20096;-59
2023/12/12 02:18:33;;;;;;;11.82;3.35;;;9.70;72.90;;;;;;5006962;28;20038;-58
2023/12/12 02:21:00;;;;;;;9.90;3.40;;;9.60;73.20;;;;;;5010638;28;20117;-56
2023/12/12 02:23:34;;;;;;;10.48;4.13;;;9.50;73.60;;;;;;5008944;28;20049;-57
2023/12/12 02:26:03;;;;;;;12.30;4.07;;;9.50;74.10;;;;;;5008348;28;20408;-57
2023/12/12 02:28:32;;;;;;;12.80;4.07;;;9.50;74.50;;;;;;5026278;28;20057;-57
2023/12/12 02:31:00;;;;;;;13.00;4.50;;;9.50;74.80;;;;;;5010529;28;20065;-57
2023/12/12 02:33:27;;;;;;;10.23;3.05;;;9.50;75.00;;;;;;5005895;28;20065;-57
2023/12/12 02:35:53;;;;;;;9.30;4.13;;;9.50;75.20;;;;;;5010301;28;20034;-58
2023/12/12 02:38:22;;;;;;;12.15;3.35;;;9.50;75.20;;;;;;5011114;28;20459;-58
2023/12/12 02:40:53;;;;;;;13.23;4.13;;;9.50;75.20;;;;;;5008971;28;20631;-56
2023/12/12 02:43:22;;;;;;;12.73;4.18;;;9.50;75.30;;;;;;5007235;28;20080;-58
2023/12/12 02:45:49;;;;;;;9.48;3.95;;;9.50;75.30;;;;;;5010281;28;20104;-57
2023/12/12 02:48:18;;;;;;;9.13;3.00;;;9.50;75.40;;;;;;5010817;28;20041;-58
2023/12/12 02:50:45;;;;;;;8.07;3.28;;;9.50;75.30;;;;;;5022301;28;20077;-58
2023/12/12 02:53:12;;;;;;;6.22;2.88;;;9.60;75.20;;;;;;5009626;28;20523;-57
2023/12/12 02:55:44;;;;;;;8.48;2.85;;;9.60;74.90;;;;;;5006640;28;20069;-58
2023/12/12 02:58:10;;;;;;;6.05;2.95;;;9.50;74.50;;;;;;5010981;28;20452;-58
2023/12/12 03:00:37;;;;;;;7.68;2.85;;;9.50;74.20;;;;;;5010243;28;20076;-58
2023/12/12 03:03:04;;;;;;;6.25;2.25;;;9.50;74.00;;;;;;5007285;28;20046;-58
2023/12/12 03:05:31;;;;;;;5.43;2.03;;;9.50;73.70;;;;;;5009745;28;20135;-56
2023/12/12 03:07:58;;;;;;;3.85;1.83;;;9.40;73.40;;;;;;5010693;28;20046;-58
2023/12/12 03:10:27;;;;;;;6.80;2.45;;;9.40;73.20;;;;;;5009805;28;20635;-57
2023/12/12 03:12:56;;;;;;;6.03;2.28;;;9.30;72.90;;;;;;5008040;28;20122;-55
2023/12/12 03:15:22;;;;;;;5.93;1.90;;;9.30;72.70;;;;;;5024699;28;20045;-58
2023/12/12 03:17:49;;;;;;;3.60;2.05;;;9.20;72.40;;;;;;5007579;28;20593;-57
2023/12/12 03:20:22;;;;;;;2.38;1.50;;;9.10;72.30;;;;;;5009543;28;20132;-58
2023/12/12 03:22:50;;;;;;;3.65;1.50;;;9.10;72.20;;;;;;5008634;28;20038;-58
2023/12/12 03:25:17;;;;;;;3.67;1.17;;;9.00;72.10;;;;;;5006562;28;20133;-57
2023/12/12 03:27:43;;;;;;;2.17;1.35;;;8.90;72.00;;;;;;5010023;28;20042;-58
2023/12/12 03:30:10;;;;;;;2.03;0.90;;;8.90;72.00;;;;;;5009231;28;20042;-57
2023/12/12 03:32:38;;;;;;;4.70;1.58;;;8.80;72.00;;;;;;5009325;28;20498;-58
2023/12/12 03:35:04;;;;;;;6.57;1.50;;;8.80;72.20;;;;;;5007212;28;20038;-58
2023/12/12 03:37:36;;;;;;;5.65;1.90;;;8.70;72.40;;;;;;5009359;28;20440;-58
2023/12/12 03:40:04;;;;;;;4.22;1.67;;;8.70;72.80;;;;;;5009847;28;20393;-58
2023/12/12 03:42:33;;;;;;;2.88;1.25;;;8.70;73.10;;;;;;5008751;28;20515;-56
2023/12/12 03:45:00;;;;;;;3.72;1.75;;;8.70;73.50;;;;;;5022674;28;20038;-58
2023/12/12 03:47:26;;;;;;;3.25;1.77;;;8.70;73.80;;;;;;5006557;28;20126;-58
2023/12/12 03:49:53;;;;;;;3.92;2.33;;;8.70;74.10;;;;;;5009969;28;20120;-58
2023/12/12 03:52:22;;;;;;;4.20;1.73;;;8.80;74.40;;;;;;5005409;28;20423;-56
2023/12/12 03:54:49;;;;;;;3.90;1.55;;;8.80;74.50;;;;;;5004191;28;20042;-57
2023/12/12 03:57:18;;;;;;;3.85;1.58;;;8.90;74.70;;;;;;5009247;28;20072;-57
2023/12/12 03:59:47;;;;;;;5.28;1.75;;;8.90;74.80;;;;;;5009212;28;20041;-58
2023/12/12 04:02:16;;;;;;;4.22;1.58;;;9.00;74.90;;;;;;5009865;28;20405;-57
2023/12/12 04:04:43;;;;;;;4.03;1.80;;;9.10;75.00;;;;;;5007353;28;20042;-57
2023/12/12 04:07:10;;;;;;;5.10;2.08;;;9.10;75.00;;;;;;5009439;28;20116;-59
2023/12/12 04:09:39;;;;;;;7.22;2.15;;;9.20;75.20;;;;;;5009165;28;20423;-57
2023/12/12 04:12:09;;;;;;;5.00;2.28;;;9.20;75.20;;;;;;5007811;28;20088;-58
2023/12/12 04:14:37;;;;;;;8.00;2.63;;;9.30;75.30;;;;;;5009149;28;20096;-58
2023/12/12 04:17:03;;;;;;;9.52;3.17;;;9.30;75.40;;;;;;5007720;28;21112;-56
2023/12/12 04:19:30;;;;;;;17.33;3.78;;;9.40;75.40;;;;;;5007632;28;20411;-58
2023/12/12 04:21:57;;;;;;;9.73;3.35;;;9.40;75.40;;;;;;5009613;28;20471;-57
2023/12/12 04:24:26;;;;;;;6.70;3.08;;;9.40;75.30;;;;;;5006977;28;20049;-57
2023/12/12 04:26:52;;;;;;;9.23;3.17;;;9.50;75.20;;;;;;5009249;28;20399;-57
2023/12/12 04:29:22;;;;;;;5.60;3.35;;;9.50;75.10;;;;;;5004155;28;20464;-58
2023/12/12 04:31:52;;;;;;;5.03;2.97;;;9.50;75.00;;;;;;5007470;28;20078;-58
2023/12/12 04:34:22;;;;;;;7.45;3.78;;;9.60;74.90;;;;;;5005702;28;20129;-58
2023/12/12 04:36:54;;;;;;;8.45;3.33;;;9.60;74.80;;;;;;5008472;28;20037;-58
2023/12/12 04:39:21;;;;;;;6.30;3.08;;;9.60;74.70;;;;;;5002949;28;20044;-58
2023/12/12 04:41:47;;;;;;;7.00;3.70;;;9.60;74.70;;;;;;5009095;28;20092;-58
2023/12/12 04:44:16;;;;;;;6.15;3.13;;;9.60;74.70;;;;;;5009033;28;20092;-57
2023/12/12 04:46:45;;;;;;;9.73;3.47;;;9.60;74.70;;;;;;5008152;28;20092;-57
2023/12/12 04:49:20;;;;;;;6.38;3.05;;;9.60;74.70;;;;;;5005935;28;20045;-57
2023/12/12 04:51:47;;;;;;;7.72;3.30;;;9.70;74.70;;;;;;5008148;28;20045;-58
2023/12/12 04:54:16;;;;;;;6.07;2.90;;;9.70;74.80;;;;;;5008881;28;20045;-58
2023/12/12 04:56:43;;;;;;;10.40;3.45;;;9.70;74.90;;;;;;5012140;28;20113;-58
2023/12/12 04:59:12;;;;;;;6.88;3.38;;;9.70;75.00;;;;;;5012878;28;20045;-58
2023/12/12 05:01:39;;;;;;;10.55;4.10;;;9.80;75.20;;;;;;5010680;28;20045;-57
2023/12/12 05:04:09;;;;;;;6.72;3.45;;;9.80;75.30;;;;;;5010990;28;20037;-58
2023/12/12 05:06:36;;;;;;;10.65;4.15;;;9.80;75.30;;;;;;5012065;28;20041;-57
2023/12/12 05:09:03;;;;;;;8.00;3.58;;;9.80;75.40;;;;;;5010698;28;20679;-58
2023/12/12 05:11:30;;;;;;;8.57;3.58;;;9.90;75.50;;;;;;5012729;28;20124;-58
2023/12/12 05:13:59;;;;;;;9.38;4.05;;;9.90;75.50;;;;;;5011902;28;20034;-58
2023/12/12 05:16:28;;;;;;;12.60;3.97;;;9.90;75.40;;;;;;5012172;28;20038;-58
2023/12/12 05:19:01;;;;;;;9.23;3.65;;;9.90;75.40;;;;;;5007306;28;20044;-58
2023/12/12 05:21:31;;;;;;;14.52;5.13;;;10.00;75.50;;;;;;5026295;28;20038;-58
2023/12/12 05:24:00;;;;;;;13.35;5.00;;;10.00;75.60;;;;;;5006760;28;20566;-57
2023/12/12 05:26:32;;;;;;;18.83;5.03;;;10.00;75.70;;;;;;5012490;28;20065;-58
2023/12/12 05:29:04;;;;;;;9.60;4.15;;;10.00;75.70;;;;;;5012152;28;20048;-58
2023/12/12 05:31:33;;;;;;;9.75;4.05;;;10.10;75.70;;;;;;5026585;28;20092;-58
2023/12/12 05:34:00;;;;;;;9.10;4.30;;;10.10;75.70;;;;;;5008701;28;20045;-58
2023/12/12 05:36:27;;;;;;;9.00;4.03;;;10.10;75.60;;;;;;5011461;28;20049;-58
2023/12/12 05:38:54;;;;;;;6.72;3.70;;;10.10;75.50;;;;;;5012090;28;20050;-57
2023/12/12 05:41:24;;;;;;;17.10;5.80;;;10.10;75.40;;;;;;5020889;28;20119;-57
2023/12/12 05:43:51;;;;;;;13.07;4.78;;;10.10;75.50;;;;;;5005727;28;20475;-58
2023/12/12 05:46:18;;;;;;;12.38;4.78;;;10.10;75.70;;;;;;5011629;28;20129;-58
2023/12/12 05:48:46;;;;;;;14.73;4.95;;;10.20;75.90;;;;;;5011630;28;20073;-59
2023/12/12 05:51:17;;;;;;;10.38;4.85;;;10.20;76.10;;;;;;5008832;28;20045;-57
2023/12/12 05:53:48;;;;;;;10.43;5.22;;;10.20;76.20;;;;;;5007045;28;20042;-58
2023/12/12 05:56:15;;;;;;;13.75;4.63;;;10.20;76.30;;;;;;5012058;28;20042;-57
2023/12/12 05:58:41;;;;;;;13.60;4.22;;;10.20;76.30;;;;;;5011342;28;20112;-58
2023/12/12 06:01:11;;;;;;;13.70;4.95;;;10.30;76.40;;;;;;5009567;28;20488;-58
2023/12/12 06:03:40;;;;;;;17.90;4.97;;;10.30;76.50;;;;;;5023247;28;20050;-58
2023/12/12 06:06:09;;;;;;;16.92;4.88;;;10.30;76.50;;;;;;5011490;28;20042;-58
2023/12/12 06:08:36;;;;;;;9.75;3.08;;;10.30;76.60;;;;;;5011218;28;20046;-57
2023/12/12 06:11:03;;;;;;;12.70;4.25;;;10.40;76.70;;;;;;5006437;28;20060;-58
2023/12/12 06:13:32;;;;;;;9.52;4.85;;;10.40;76.70;;;;;;5010923;28;20084;-58
2023/12/12 06:15:59;;;;;;;13.52;4.88;;;10.50;76.80;;;;;;5010806;28;20042;-58
2023/12/12 06:18:26;;;;;;;17.08;4.63;;;10.50;76.70;;;;;;5006588;28;20056;-58
2023/12/12 06:20:55;;;;;;;9.88;3.70;;;10.50;76.70;;;;;;5009899;28;20084;-58
2023/12/12 06:23:28;;;;;;;13.35;4.55;;;10.50;76.70;;;;;;5009580;28;20653;-58
2023/12/12 06:25:55;;;;;;;10.60;3.80;;;10.60;76.60;;;;;;5009629;28;20512;-58
2023/12/12 06:28:22;;;;;;;13.40;4.85;;;10.60;76.60;;;;;;5011254;28;20073;-58
2023/12/12 06:30:58;;;;;;;10.20;4.18;;;10.60;76.60;;;;;;5010260;28;20054;-58
2023/12/12 06:33:28;;;;;;;9.32;4.00;;;10.60;76.60;;;;;;5008449;28;20034;-58
2023/12/12 06:35:56;;;;;;;10.02;4.00;;;10.70;76.70;;;;;;5008173;28;20038;-58
2023/12/12 06:38:23;;;;;;;11.88;4.22;;;10.70;76.80;;;;;;5009239;28;20037;-58
2023/12/12 06:40:50;;;;;;;12.23;3.67;;;10.80;76.90;;;;;;5007915;28;20042;-58
2023/12/12 06:43:22;;;;;;;12.38;4.25;;;10.80;76.90;;;;;;5009079;28;20056;-58
2023/12/12 06:45:48;;;;;;;14.75;4.43;;;10.80;77.00;;;;;;5009894;28;20480;-57
2023/12/12 06:48:15;;;;;;;12.25;4.15;;;10.80;77.50;;;;;;5010680;28;20077;-58
2023/12/12 06:50:44;;;;;;;12.93;4.20;;;10.80;76.90;;;;;;5007043;28;20059;-57
2023/12/12 06:53:11;;;;;;;12.38;3.95;;;10.90;77.00;;;;;;5009925;28;20057;-58
2023/12/12 06:55:45;;;;;;;15.95;4.32;;;10.90;77.00;;;;;;5011112;28;20566;-57
2023/12/12 06:58:17;;;;;;;12.98;4.28;;;10.90;76.90;;;;;;5011102;28;20049;-58
2023/12/12 07:00:44;;;;;;;11.02;4.22;;;10.90;76.80;;;;;;5010902;28;20042;-58
2023/12/12 07:03:10;;;;;;;14.90;5.05;;;11.00;76.80;;;;;;5007822;28;20046;-58
2023/12/12 07:05:40;;;;;;;17.33;4.95;;;11.00;76.80;;;;;;5009965;28;20411;-58
2023/12/12 07:08:12;;;;;;;16.15;4.85;;;10.90;76.60;;;;;;5009707;28;20109;-58
2023/12/12 07:10:40;;;;;;;12.75;4.30;;;11.00;76.60;;;;;;5011164;28;20069;-58
2023/12/12 07:13:08;;;;;;;16.70;4.93;;;10.90;76.50;;;;;;5007891;28;20034;-58
2023/12/12 07:15:35;;;;;;;14.52;5.53;;;10.90;76.60;;;;;;5008284;28;20045;-58
2023/12/12 07:18:01;;;;;;;15.43;5.43;;;10.90;76.60;;;;;;5001449;28;20134;-57
2023/12/12 07:20:28;;;;;;;19.45;4.63;;;10.90;76.60;;;;;;5023941;28;20524;-57
2023/12/12 07:22:57;;;;;;;10.90;3.92;;;10.90;76.70;;;;;;5008312;28;20092;-55
2023/12/12 07:25:24;;;;;;;13.68;4.03;;;11.00;76.60;;;;;;5005584;28;20049;-53
2023/12/12 07:27:51;;;;;;;16.30;4.65;;;11.00;76.50;;;;;;5008639;28;20052;-52
2023/12/12 07:30:19;;;;;;;10.10;3.95;;;10.90;76.50;;;;;;5008634;28;20444;-52
2023/12/12 07:32:51;;;;;;;8.75;3.95;;;10.90;77.00;;;;;;5003138;28;20105;-53
2023/12/12 07:35:20;;;;;;;16.50;4.15;;;10.90;76.40;;;;;;5000428;28;20052;-56
2023/12/12 07:38:01;;;;;;;15.38;4.13;;;10.90;76.50;;;;;;5008487;28;20044;-54
2023/12/12 07:40:32;;;;;;;11.32;3.85;;;10.90;76.50;;;;;;5009120;28;20508;-54
2023/12/12 07:43:08;;;;;;;8.65;4.00;;;10.90;76.60;;;;;;5008351;28;20080;-52
2023/12/12 07:45:35;;;;;;;6.53;3.40;;;10.90;76.60;;;;;;5009008;28;20055;-56
2023/12/12 07:48:03;;;;;;;7.50;3.63;;;10.90;76.60;;;;;;5006051;28;20100;-56
2023/12/12 07:50:29;;;;;;;13.93;4.70;;;11.00;76.70;;;;;;5006360;28;20045;-55
2023/12/12 07:52:56;;;;;;;11.38;4.38;;;10.90;76.60;;;;;;5008121;28;20046;-53
2023/12/12 07:55:25;;;;;;;10.90;3.95;;;10.90;76.50;;;;;;5000870;28;20130;-56
2023/12/12 07:57:52;;;;;;;12.68;3.97;;;11.00;76.50;;;;;;4991857;28;20042;-56
2023/12/12 08:00:19;;;;;;;11.80;3.88;;;10.90;76.50;;;;;;4999271;28;20038;-54
2023/12/12 08:02:46;;;;;;;14.77;4.50;;;11.00;76.50;;;;;;4997757;28;20068;-54
2023/12/12 08:05:12;;;;;;;11.80;4.45;;;11.00;76.60;;;;;;5000243;28;20065;-55
2023/12/12 08:07:39;;;;;;;14.80;4.35;;;11.00;76.70;;;;;;5007677;28;20065;-54
2023/12/12 08:10:07;;;;;;;17.95;4.82;;;11.00;76.80;;;;;;5010047;28;20412;-56
2023/12/12 08:12:33;;;;;;;6.93;3.55;;;11.00;76.80;;;;;;5005601;28;20045;-55
2023/12/12 08:15:00;;;;;;;8.18;4.18;;;11.10;76.90;;;;;;5005593;28;20041;-55
2023/12/12 08:17:27;;;;;;;13.48;4.25;;;11.10;77.00;;;;;;5009404;28;20045;-56
2023/12/12 08:19:53;;;;;;;10.88;3.88;;;11.10;77.00;;;;;;5008678;28;20045;-55
2023/12/12 08:22:21;;;;;;;12.43;4.28;;;11.10;77.00;;;;;;4998955;28;20084;-56
2023/12/12 08:24:51;;;;;;;9.65;3.60;;;11.10;76.90;;;;;;5004657;28;20100;-55
2023/12/12 08:27:18;;;;;;;10.25;3.72;;;11.20;77.00;;;;;;5009275;28;20041;-56
2023/12/12 08:29:47;;;;;;;11.43;4.20;;;11.20;77.00;;;;;;5011917;28;20046;-55
2023/12/12 08:32:14;;;;;;;11.63;3.72;;;11.20;77.00;;;;;;5011619;28;20061;-55
2023/12/12 08:34:41;;;;;;;9.40;3.63;;;11.20;76.90;;;;;;5007976;28;20030;-56
2023/12/12 08:37:10;;;;;;;9.32;3.60;;;11.30;76.90;;;;;;5012643;28;20057;-56
2023/12/12 08:39:38;;;;;;;9.45;3.22;;;11.30;76.90;;;;;;5013364;28;20037;-56
2023/12/12 08:42:05;;;;;;;11.90;3.35;;;11.40;76.90;;;;;;5006941;28;20040;-53
2023/12/12 08:44:32;;;;;;;12.32;3.40;;;11.50;76.90;;;;;;5013298;28;20100;-55
2023/12/12 08:46:58;;;;;;;7.45;3.55;;;11.50;76.80;;;;;;5012754;28;20049;-55
2023/12/12 08:49:26;;;;;;;9.68;3.75;;;11.50;76.80;;;;;;5013510;28;20451;-56
2023/12/12 08:51:53;;;;;;;14.00;4.15;;;11.50;76.80;;;;;;5008385;28;20059;-55
2023/12/12 08:54:20;;;;;;;12.05;4.03;;;11.60;76.80;;;;;;5008665;28;20042;-55
2023/12/12 08:56:52;;;;;;;13.52;3.75;;;11.60;77.40;;;;;;5012512;28;20038;-56
2023/12/12 08:59:21;;;;;;;20.13;3.90;;;11.70;76.80;;;;;;5013580;28;20737;-55
2023/12/12 09:01:48;;;;;;;11.85;4.20;;;11.70;76.60;;;;;;5009279;28;20034;-56
2023/12/12 09:04:16;;;;;;;8.30;3.95;;;11.80;76.60;;;;;;5006448;28;20114;-55
2023/12/12 09:06:44;;;;;;;11.75;3.97;;;11.80;76.50;;;;;;5012893;28;20499;-56
2023/12/12 09:09:12;;;;;;;13.15;4.60;;;11.80;76.30;;;;;;5013010;28;20049;-55
2023/12/12 09:11:39;;;;;;;12.57;4.47;;;11.80;76.20;;;;;;5011517;28;20050;-53
2023/12/12 09:14:07;;;;;;;8.65;3.15;;;11.90;76.10;;;;;;5011648;28;20037;-52
2023/12/12 09:16:33;;;;;;;9.77;3.63;;;12.00;76.00;;;;;;5012600;28;20411;-53
2023/12/12 09:19:02;;;;;;;15.43;3.58;;;12.00;75.90;;;;;;5012875;28;20058;-53
2023/12/12 09:21:29;;;;;;;9.23;3.65;;;12.00;75.90;;;;;;5010478;28;20044;-53
2023/12/12 09:23:56;;;;;;;6.97;2.70;;;12.00;75.90;;;;;;5007237;28;20096;-53
2023/12/12 09:26:23;;;;;;;9.02;3.30;;;12.10;76.00;;;;;;5012356;28;20057;-53
2023/12/12 09:28:50;;;;;;;7.78;2.65;;;12.10;75.90;;;;;;5013032;28;20041;-52
2023/12/12 09:31:25;;;;;;;7.25;2.75;;;12.20;75.90;;;;;;5011231;28;20058;-53
2023/12/12 09:33:52;;;;;;;9.48;3.05;;;12.30;75.80;;;;;;5008772;28;20042;-51
2023/12/12 09:36:22;;;;;;;10.55;3.25;;;12.30;75.70;;;;;;5011487;28;20091;-53
2023/12/12 09:38:48;;;;;;;8.45;3.30;;;12.40;75.60;;;;;;5011247;28;20046;-53
2023/12/12 09:41:20;;;;;;;7.10;3.00;;;12.40;75.50;;;;;;5009507;28;20046;-53
2023/12/12 09:43:48;;;;;;;12.55;3.55;;;12.50;75.80;;;;;;5011700;28;20065;-52
2023/12/12 09:46:16;;;;;;;9.13;3.05;;;12.50;75.40;;;;;;5011930;28;20065;-53
2023/12/12 09:48:48;;;;;;;9.52;3.28;;;12.60;75.30;;;;;;5009930;28;20046;-53
2023/12/12 09:51:15;;;;;;;8.17;3.30;;;12.60;75.20;;;;;;5007087;28;20057;-53
2023/12/12 09:53:46;;;;;;;9.13;2.95;;;12.70;75.20;;;;;;5005547;28;20354;-52
2023/12/12 09:56:17;;;;;;;11.95;3.65;;;12.70;75.10;;;;;;5011459;28;20066;-53
2023/12/12 09:58:51;;;;;;;8.05;2.53;;;12.80;75.10;;;;;;5012596;28;20042;-53
2023/12/12 10:01:17;;;;;;;8.32;3.53;;;12.80;74.90;;;;;;5009748;28;20038;-53
2023/12/12 10:03:45;;;;;;;7.60;2.63;;;12.80;74.80;;;;;;5004443;28;20089;-51
2023/12/12 10:06:13;;;;;;;7.28;2.78;;;12.90;74.80;;;;;;5008783;28;20178;-53
2023/12/12 10:08:40;;;;;;;8.68;2.85;;;12.90;74.70;;;;;;5006097;28;20100;-51
2023/12/12 10:11:09;;;;;;;9.40;4.00;;;12.90;74.70;;;;;;5009053;28;20129;-53
2023/12/12 10:13:54;;;;;;;13.13;3.15;;;13.00;74.70;;;;;;5011078;28;20034;-50
2023/12/12 10:16:21;;;;;;;10.02;3.42;;;13.00;74.70;;;;;;5002508;28;20056;-49
2023/12/12 10:18:50;;;;;;;11.50;3.45;;;13.00;74.60;;;;;;5010506;28;20093;-53
2023/12/12 10:21:22;;;;;;;7.45;3.35;;;13.00;74.50;;;;;;5007775;28;20501;-52
2023/12/12 10:23:51;;;;;;;8.43;3.35;;;13.10;74.60;;;;;;5007791;28;20052;-53
2023/12/12 10:26:30;;;;;;;8.52;3.15;;;13.10;74.70;;;;;;5010579;28;20084;-53
2023/12/12 10:28:58;;;;;;;11.43;3.90;;;13.10;74.70;;;;;;5027177;28;20050;-53
2023/12/12 10:31:25;;;;;;;7.78;3.83;;;13.20;74.80;;;;;;5011116;28;20045;-52
2023/12/12 10:33:55;;;;;;;8.27;3.67;;;13.20;74.70;;;;;;5007502;28;20460;-52
2023/12/12 10:36:22;;;;;;;8.75;3.55;;;13.20;74.60;;;;;;5010807;28;20271;-53
2023/12/12 10:38:49;;;;;;;6.80;2.70;;;13.30;74.60;;;;;;5011657;28;20133;-53
2023/12/12 10:41:21;;;;;;;8.52;2.92;;;13.30;74.40;;;;;;5010319;28;20088;-53
2023/12/12 10:43:53;;;;;;;12.65;3.10;;;13.30;74.30;;;;;;5006511;28;20081;-52
2023/12/12 10:46:20;;;;;;;9.68;2.95;;;13.30;74.40;;;;;;5011121;28;20820;-53
2023/12/12 10:48:49;;;;;;;10.32;3.15;;;13.40;74.00;;;;;;5011378;28;20053;-51
2023/12/12 10:51:17;;;;;;;8.80;3.00;;;13.40;73.90;;;;;;5003781;28;20084;-52
2023/12/12 10:53:46;;;;;;;5.28;2.50;;;13.40;73.80;;;;;;5005393;28;20041;-53
2023/12/12 10:56:14;;;;;;;12.20;3.33;;;13.40;73.70;;;;;;5009337;28;20542;-53
2023/12/12 10:58:43;;;;;;;6.25;3.00;;;13.40;73.80;;;;;;5010350;28;20046;-53
2023/12/12 11:01:14;;;;;;;4.30;2.63;;;13.50;73.80;;;;;;5010363;28;20050;-52
2023/12/12 11:03:41;;;;;;;5.35;2.60;;;13.50;73.90;;;;;;5006912;28;20117;-52
2023/12/12 11:06:09;;;;;;;6.28;2.92;;;13.50;74.00;;;;;;5008675;28;20068;-53
2023/12/12 11:08:40;;;;;;;8.18;2.28;;;13.60;74.00;;;;;;5010657;28;20092;-52
2023/12/12 11:11:11;;;;;;;5.20;2.83;;;13.60;73.80;;;;;;5010875;28;20462;-50
2023/12/12 11:13:44;;;;;;;6.85;2.63;;;13.60;73.50;;;;;;5004160;28;20038;-53
2023/12/12 11:16:11;;;;;;;6.53;2.58;;;13.70;73.30;;;;;;5008389;28;20128;-53
2023/12/12 11:18:41;;;;;;;8.68;2.92;;;13.70;73.30;;;;;;5009309;28;20456;-53
2023/12/12 11:21:08;;;;;;;5.47;2.78;;;13.70;73.30;;;;;;5008306;28;20396;-53
2023/12/12 11:23:53;;;;;;;5.15;2.60;;;13.70;73.20;;;;;;5007335;28;20046;-53
2023/12/12 11:26:22;;;;;;;7.75;2.70;;;13.80;73.20;;;;;;5001481;28;20034;-51
2023/12/12 11:28:49;;;;;;;4.05;2.08;;;13.80;73.40;;;;;;5009356;28;20044;-53
2023/12/12 11:31:21;;;;;;;7.07;2.55;;;13.80;73.50;;;;;;4992263;28;20079;-51
2023/12/12 11:34:07;;;;;;;6.50;2.33;;;13.90;73.50;;;;;;5001592;28;20038;-50
2023/12/12 11:36:52;;;;;;;7.97;2.47;;;14.00;73.40;;;;;;5004128;28;20567;-53
2023/12/12 11:39:46;;;;;;;4.22;2.03;;;14.10;73.30;;;;;;5006175;28;20068;-53
2023/12/12 11:42:17;;;;;;;5.43;2.33;;;14.10;73.00;;;;;;5008677;28;20052;-53
2023/12/12 11:44:52;;;;;;;6.50;2.10;;;14.20;72.80;;;;;;5000976;28;20046;-51
2023/12/12 11:47:20;;;;;;;4.60;2.25;;;14.20;72.10;;;;;;5008770;28;20080;-53
2023/12/12 11:49:48;;;;;;;5.93;1.80;;;14.30;72.00;;;;;;5004468;28;20046;-53
2023/12/12 11:52:46;;;;;;;4.63;2.20;;;14.20;71.80;;;;;;5009192;28;20064;-53
2023/12/12 11:55:21;;;;;;;3.67;2.38;;;14.20;71.40;;;;;;5001660;28;20107;-54
2023/12/12 11:57:48;;;;;;;9.60;2.50;;;14.20;71.70;;;;;;5007776;28;20044;-52
2023/12/12 12:00:21;;;;;;;7.75;2.20;;;14.20;71.90;;;;;;5023196;28;20432;-51
2023/12/12 12:02:48;;;;;;;8.48;2.60;;;14.10;71.90;;;;;;5007617;28;20045;-53
2023/12/12 12:05:15;;;;;;;6.13;2.25;;;14.10;72.10;;;;;;5014116;28;20291;-50
2023/12/12 12:07:42;;;;;;;4.35;1.90;;;14.10;72.10;;;;;;5012395;28;20522;-52
2023/12/12 12:10:09;;;;;;;6.35;1.80;;;14.10;72.30;;;;;;5007243;28;20115;-52
2023/12/12 12:12:36;;;;;;;5.20;2.70;;;14.00;72.30;;;;;;5009674;28;20038;-52
2023/12/12 12:15:07;;;;;;;6.25;2.38;;;14.00;72.40;;;;;;5012494;28;20565;-54
2023/12/12 12:17:34;;;;;;;4.20;2.05;;;14.00;72.40;;;;;;5012112;28;20065;-48
2023/12/12 12:20:02;;;;;;;5.38;2.35;;;13.90;72.60;;;;;;5007700;28;20041;-48
2023/12/12 12:22:30;;;;;;;5.03;2.40;;;13.90;72.80;;;;;;5011642;28;20100;-51
2023/12/12 12:24:57;;;;;;;9.20;2.80;;;13.90;73.20;;;;;;5007936;28;20128;-51
2023/12/12 12:27:24;;;;;;;4.13;2.33;;;13.80;73.60;;;;;;5008608;28;20085;-52
2023/12/12 12:30:18;;;;;;;7.25;2.92;;;13.80;74.10;;;;;;5009356;28;20459;-49
2023/12/12 12:33:01;;;;;;;2.95;1.85;;;13.90;74.60;;;;;;5004797;28;20057;-50
2023/12/12 12:35:31;;;;;;;5.20;2.00;;;13.90;74.50;;;;;;5011645;28;20049;-49
2023/12/12 12:37:59;;;;;;;2.97;1.80;;;13.90;74.40;;;;;;5008044;28;20045;-52
2023/12/12 12:40:34;;;;;;;3.53;2.08;;;13.90;74.40;;;;;;5011744;28;20054;-52
2023/12/12 12:43:04;;;;;;;4.85;2.63;;;13.90;74.40;;;;;;5012666;28;20493;-49
2023/12/12 12:45:32;;;;;;;4.40;2.72;;;13.80;74.20;;;;;;5011440;28;20100;-51
2023/12/12 12:47:58;;;;;;;4.68;2.60;;;13.80;74.20;;;;;;5011683;28;20042;-50
2023/12/12 12:50:25;;;;;;;5.18;2.42;;;13.80;74.20;;;;;;5010000;28;20038;-49
2023/12/12 12:52:52;;;;;;;3.33;2.20;;;13.70;74.30;;;;;;5012206;28;20066;-52